Bowen, Queensland

5:18 PM AEST on December 20, 2014 (GMT +1000)
Whitsunday | Change Station
CLOSE
Current Station
Airport
Location: Proserpine,
Elevation: 66 ft
Nearby Weather Stations

Elev 66 ft 20.49 °S, 148.55 °E | Updated 18 minutes ago

Clear
Clear
84 °F
Feels Like 90 °F
N
14
Wind Variable Wind from East

Today
High -- | Low -- °F
--% Chance of Precip.
Yesterday
High -- | Low -- °F
Precip. -- in
5:24 AM 6:44 PM
Waning Crescent, 4% visible
Pressure 29.80 in
Visibility 6.2 miles
Clouds
Heat Index 90 °F
Dew Point 72 °F
Humidity 66%
Rainfall 0.00 in
Snow Depth Not available.
UV Not available.
Pollen Not available.
Air Quality Not available.
Flu Activity Not available.
METAR YBPN 200700Z AUTO 10012KT 9999 // NCD 29/22 Q1009

More Conditions Fewer Conditions

Pressure 29.80 in
Visibility 6.2 miles
Clouds
Heat Index 90 °F
Dew Point 72 °F
Humidity 66%
Rainfall 0.00 in
Snow Depth Not available.
UV Not available.
Pollen Not available.
Air Quality Not available.
Flu Activity Not available.
METAR YBPN 200700Z AUTO 10012KT 9999 // NCD 29/22 Q1009

More Conditions Fewer Conditions

10-Day Weather Forecast

Almanac

Astronomy

Dec. 20, 2014 Rise Set
Actual Time
Civil Twilight
Nautical Twilight
Astronomical Twilight
Moon
Length of Visible Light
Length of Day
Tomorrow will be .
, % of the Moon is Illuminated

Today's Extremes

Country Highs Country Lows

Community

WunderPhotos

Upload Photos

1,779,146 photos uploaded!

WunderBlogs® & News

Nearby

Air Quality

  Air Quality AQ Index Pollutant
Not available.

Snow Depth

Station Depth Elevation

Earthquake Activity

City Distance Mag. Time & Date
Minimum magnitude displayed is 2.5.

Coastal Water Temperatures

Place Temperature

Nearby Weather Stations